sensor_id;sensor_type;location;lat;lon;timestamp;P1;durP1;ratioP1;P2;durP2;ratioP2
62435;SDS011;48480;50.252;18.848;2022-08-21T00:00:21;18.00;;;14.40;;
62435;SDS011;48480;50.252;18.848;2022-08-21T00:02:52;20.90;;;15.80;;
62435;SDS011;48480;50.252;18.848;2022-08-21T00:05:21;18.50;;;15.50;;
62435;SDS011;48480;50.252;18.848;2022-08-21T00:07:49;18.60;;;14.70;;
62435;SDS011;48480;50.252;18.848;2022-08-21T00:10:16;17.70;;;12.80;;
62435;SDS011;48480;50.252;18.848;2022-08-21T00:12:43;18.60;;;13.70;;
62435;SDS011;48480;50.252;18.848;2022-08-21T00:15:12;17.20;;;13.10;;
62435;SDS011;48480;50.252;18.848;2022-08-21T00:20:09;17.10;;;12.90;;
62435;SDS011;48480;50.252;18.848;2022-08-21T00:22:37;15.10;;;12.60;;
62435;SDS011;48480;50.252;18.848;2022-08-21T00:25:06;14.40;;;12.70;;
62435;SDS011;48480;50.252;18.848;2022-08-21T00:27:33;17.30;;;13.80;;
62435;SDS011;48480;50.252;18.848;2022-08-21T00:30:00;18.60;;;12.10;;
62435;SDS011;48480;50.252;18.848;2022-08-21T00:32:27;17.30;;;13.40;;
62435;SDS011;48480;50.252;18.848;2022-08-21T00:34:54;15.00;;;12.30;;
62435;SDS011;48480;50.252;18.848;2022-08-21T00:37:20;15.90;;;12.20;;
62435;SDS011;48480;50.252;18.848;2022-08-21T00:39:47;14.30;;;12.80;;
62435;SDS011;48480;50.252;18.848;2022-08-21T00:42:16;16.60;;;13.20;;
62435;SDS011;48480;50.252;18.848;2022-08-21T00:44:46;16.20;;;12.60;;
62435;SDS011;48480;50.252;18.848;2022-08-21T00:47:14;17.40;;;12.60;;
62435;SDS011;48480;50.252;18.848;2022-08-21T00:49:41;15.60;;;12.40;;
62435;SDS011;48480;50.252;18.848;2022-08-21T00:52:09;13.20;;;11.70;;
62435;SDS011;48480;50.252;18.848;2022-08-21T00:54:41;14.10;;;11.50;;
62435;SDS011;48480;50.252;18.848;2022-08-21T00:57:10;13.80;;;12.10;;
62435;SDS011;48480;50.252;18.848;2022-08-21T00:59:42;14.00;;;12.40;;
62435;SDS011;48480;50.252;18.848;2022-08-21T01:02:11;16.30;;;12.30;;
62435;SDS011;48480;50.252;18.848;2022-08-21T01:04:39;15.10;;;12.00;;
62435;SDS011;48480;50.252;18.848;2022-08-21T01:07:06;18.50;;;11.80;;
62435;SDS011;48480;50.252;18.848;2022-08-21T01:09:33;15.00;;;11.60;;
62435;SDS011;48480;50.252;18.848;2022-08-21T01:11:59;16.10;;;11.20;;
62435;SDS011;48480;50.252;18.848;2022-08-21T01:14:26;13.50;;;10.90;;
62435;SDS011;48480;50.252;18.848;2022-08-21T01:16:54;12.80;;;11.40;;
62435;SDS011;48480;50.252;18.848;2022-08-21T01:19:22;13.10;;;11.20;;
62435;SDS011;48480;50.252;18.848;2022-08-21T01:21:49;19.30;;;12.00;;
62435;SDS011;48480;50.252;18.848;2022-08-21T01:24:16;13.10;;;10.50;;
62435;SDS011;48480;50.252;18.848;2022-08-21T01:26:43;15.30;;;11.20;;
62435;SDS011;48480;50.252;18.848;2022-08-21T01:29:16;14.20;;;10.60;;
62435;SDS011;48480;50.252;18.848;2022-08-21T01:31:51;13.10;;;10.30;;
62435;SDS011;48480;50.252;18.848;2022-08-21T01:34:18;11.90;;;9.50;;
62435;SDS011;48480;50.252;18.848;2022-08-21T01:36:45;14.50;;;10.20;;
62435;SDS011;48480;50.252;18.848;2022-08-21T01:39:13;12.70;;;9.20;;
62435;SDS011;48480;50.252;18.848;2022-08-21T01:41:41;12.30;;;9.70;;
62435;SDS011;48480;50.252;18.848;2022-08-21T01:44:07;10.90;;;9.40;;
62435;SDS011;48480;50.252;18.848;2022-08-21T01:46:34;9.80;;;8.80;;
62435;SDS011;48480;50.252;18.848;2022-08-21T01:49:01;13.50;;;8.90;;
62435;SDS011;48480;50.252;18.848;2022-08-21T01:51:29;9.70;;;8.10;;
62435;SDS011;48480;50.252;18.848;2022-08-21T01:53:55;11.50;;;8.70;;
62435;SDS011;48480;50.252;18.848;2022-08-21T01:56:21;12.60;;;9.60;;
62435;SDS011;48480;50.252;18.848;2022-08-21T01:58:49;11.10;;;9.20;;
62435;SDS011;48480;50.252;18.848;2022-08-21T02:01:15;10.10;;;8.60;;
62435;SDS011;48480;50.252;18.848;2022-08-21T02:03:42;10.00;;;8.20;;
62435;SDS011;48480;50.252;18.848;2022-08-21T02:06:12;10.50;;;8.30;;
62435;SDS011;48480;50.252;18.848;2022-08-21T02:08:40;9.30;;;7.90;;
62435;SDS011;48480;50.252;18.848;2022-08-21T02:11:07;11.60;;;8.40;;
62435;SDS011;48480;50.252;18.848;2022-08-21T02:13:33;8.90;;;7.80;;
62435;SDS011;48480;50.252;18.848;2022-08-21T02:16:00;9.30;;;8.30;;
62435;SDS011;48480;50.252;18.848;2022-08-21T02:18:27;10.30;;;8.10;;
62435;SDS011;48480;50.252;18.848;2022-08-21T02:20:53;10.50;;;7.70;;
62435;SDS011;48480;50.252;18.848;2022-08-21T02:23:20;10.90;;;8.30;;
62435;SDS011;48480;50.252;18.848;2022-08-21T02:25:46;10.10;;;8.10;;
62435;SDS011;48480;50.252;18.848;2022-08-21T02:28:13;10.90;;;8.80;;
62435;SDS011;48480;50.252;18.848;2022-08-21T02:30:42;11.60;;;8.70;;
62435;SDS011;48480;50.252;18.848;2022-08-21T02:33:10;13.00;;;9.30;;
62435;SDS011;48480;50.252;18.848;2022-08-21T02:35:38;10.20;;;7.90;;
62435;SDS011;48480;50.252;18.848;2022-08-21T02:38:09;11.60;;;9.10;;
62435;SDS011;48480;50.252;18.848;2022-08-21T02:40:38;11.40;;;8.10;;
62435;SDS011;48480;50.252;18.848;2022-08-21T02:43:07;12.10;;;8.10;;
62435;SDS011;48480;50.252;18.848;2022-08-21T02:45:34;12.50;;;8.60;;
62435;SDS011;48480;50.252;18.848;2022-08-21T02:48:03;12.00;;;8.50;;
62435;SDS011;48480;50.252;18.848;2022-08-21T02:50:33;12.20;;;9.00;;
62435;SDS011;48480;50.252;18.848;2022-08-21T02:53:01;10.80;;;8.50;;
62435;SDS011;48480;50.252;18.848;2022-08-21T02:55:29;12.60;;;8.20;;
62435;SDS011;48480;50.252;18.848;2022-08-21T02:57:58;9.20;;;7.80;;
62435;SDS011;48480;50.252;18.848;2022-08-21T03:00:26;12.90;;;8.90;;
62435;SDS011;48480;50.252;18.848;2022-08-21T03:02:55;13.30;;;8.90;;
62435;SDS011;48480;50.252;18.848;2022-08-21T03:05:22;14.90;;;9.30;;
62435;SDS011;48480;50.252;18.848;2022-08-21T03:07:50;12.00;;;9.60;;
62435;SDS011;48480;50.252;18.848;2022-08-21T03:10:20;13.50;;;9.60;;
62435;SDS011;48480;50.252;18.848;2022-08-21T03:12:48;13.00;;;9.10;;
62435;SDS011;48480;50.252;18.848;2022-08-21T03:15:16;12.20;;;9.30;;
62435;SDS011;48480;50.252;18.848;2022-08-21T03:17:44;12.80;;;10.40;;
62435;SDS011;48480;50.252;18.848;2022-08-21T03:20:12;14.80;;;11.80;;
62435;SDS011;48480;50.252;18.848;2022-08-21T03:22:40;14.50;;;10.90;;
62435;SDS011;48480;50.252;18.848;2022-08-21T03:25:07;14.80;;;12.80;;
62435;SDS011;48480;50.252;18.848;2022-08-21T03:27:36;17.60;;;13.10;;
62435;SDS011;48480;50.252;18.848;2022-08-21T03:30:04;16.60;;;13.70;;
62435;SDS011;48480;50.252;18.848;2022-08-21T03:32:32;17.10;;;13.10;;
62435;SDS011;48480;50.252;18.848;2022-08-21T03:34:59;15.60;;;12.80;;
62435;SDS011;48480;50.252;18.848;2022-08-21T03:37:26;18.80;;;14.70;;
62435;SDS011;48480;50.252;18.848;2022-08-21T03:39:53;19.20;;;14.90;;
62435;SDS011;48480;50.252;18.848;2022-08-21T03:42:19;19.80;;;15.40;;
62435;SDS011;48480;50.252;18.848;2022-08-21T03:44:46;17.40;;;15.60;;
62435;SDS011;48480;50.252;18.848;2022-08-21T03:47:12;23.80;;;18.30;;
62435;SDS011;48480;50.252;18.848;2022-08-21T03:49:39;20.20;;;17.10;;
62435;SDS011;48480;50.252;18.848;2022-08-21T03:52:05;24.00;;;18.00;;
62435;SDS011;48480;50.252;18.848;2022-08-21T03:54:32;27.00;;;19.50;;
62435;SDS011;48480;50.252;18.848;2022-08-21T03:56:59;24.80;;;20.20;;
62435;SDS011;48480;50.252;18.848;2022-08-21T03:59:25;23.10;;;19.30;;
62435;SDS011;48480;50.252;18.848;2022-08-21T04:01:59;21.20;;;16.60;;
62435;SDS011;48480;50.252;18.848;2022-08-21T04:04:27;22.10;;;16.20;;
62435;SDS011;48480;50.252;18.848;2022-08-21T04:06:54;21.40;;;15.90;;
62435;SDS011;48480;50.252;18.848;2022-08-21T04:09:22;18.90;;;15.50;;
62435;SDS011;48480;50.252;18.848;2022-08-21T04:11:48;17.70;;;14.40;;
62435;SDS011;48480;50.252;18.848;2022-08-21T04:14:16;21.50;;;16.30;;
62435;SDS011;48480;50.252;18.848;2022-08-21T04:16:43;21.40;;;16.90;;
62435;SDS011;48480;50.252;18.848;2022-08-21T04:19:10;20.30;;;16.60;;
62435;SDS011;48480;50.252;18.848;2022-08-21T04:21:39;21.70;;;15.10;;
62435;SDS011;48480;50.252;18.848;2022-08-21T04:24:06;20.80;;;14.60;;
62435;SDS011;48480;50.252;18.848;2022-08-21T04:26:36;17.10;;;14.00;;
62435;SDS011;48480;50.252;18.848;2022-08-21T04:29:04;19.00;;;14.70;;
62435;SDS011;48480;50.252;18.848;2022-08-21T04:31:35;19.60;;;15.00;;
62435;SDS011;48480;50.252;18.848;2022-08-21T04:34:03;25.00;;;16.00;;
62435;SDS011;48480;50.252;18.848;2022-08-21T04:36:31;17.20;;;15.40;;
62435;SDS011;48480;50.252;18.848;2022-08-21T04:38:59;23.40;;;14.90;;
62435;SDS011;48480;50.252;18.848;2022-08-21T04:41:25;20.50;;;13.30;;
62435;SDS011;48480;50.252;18.848;2022-08-21T04:43:52;19.10;;;13.50;;
62435;SDS011;48480;50.252;18.848;2022-08-21T04:46:18;18.80;;;14.60;;
62435;SDS011;48480;50.252;18.848;2022-08-21T04:48:45;18.80;;;15.30;;
62435;SDS011;48480;50.252;18.848;2022-08-21T04:51:13;22.10;;;15.90;;
62435;SDS011;48480;50.252;18.848;2022-08-21T04:53:47;19.10;;;16.50;;
62435;SDS011;48480;50.252;18.848;2022-08-21T04:59:02;17.50;;;13.30;;
62435;SDS011;48480;50.252;18.848;2022-08-21T05:01:32;16.20;;;13.80;;
62435;SDS011;48480;50.252;18.848;2022-08-21T05:04:02;17.20;;;12.80;;
62435;SDS011;48480;50.252;18.848;2022-08-21T05:06:33;18.10;;;14.50;;
62435;SDS011;48480;50.252;18.848;2022-08-21T05:09:03;19.30;;;14.30;;
62435;SDS011;48480;50.252;18.848;2022-08-21T05:11:30;18.50;;;13.60;;
62435;SDS011;48480;50.252;18.848;2022-08-21T05:13:58;21.00;;;12.50;;
62435;SDS011;48480;50.252;18.848;2022-08-21T05:16:25;14.80;;;12.80;;
62435;SDS011;48480;50.252;18.848;2022-08-21T05:18:52;19.70;;;13.00;;
62435;SDS011;48480;50.252;18.848;2022-08-21T05:21:19;17.40;;;12.60;;
62435;SDS011;48480;50.252;18.848;2022-08-21T05:23:46;15.20;;;12.10;;
62435;SDS011;48480;50.252;18.848;2022-08-21T05:26:13;18.90;;;12.80;;
62435;SDS011;48480;50.252;18.848;2022-08-21T05:28:39;16.00;;;13.00;;
62435;SDS011;48480;50.252;18.848;2022-08-21T05:31:06;18.70;;;13.80;;
62435;SDS011;48480;50.252;18.848;2022-08-21T05:33:32;18.10;;;13.40;;
62435;SDS011;48480;50.252;18.848;2022-08-21T05:35:59;20.90;;;13.40;;
62435;SDS011;48480;50.252;18.848;2022-08-21T05:38:26;17.80;;;13.40;;
62435;SDS011;48480;50.252;18.848;2022-08-21T05:40:54;17.60;;;11.30;;
62435;SDS011;48480;50.252;18.848;2022-08-21T05:43:21;15.20;;;12.10;;
62435;SDS011;48480;50.252;18.848;2022-08-21T05:45:47;17.40;;;12.90;;
62435;SDS011;48480;50.252;18.848;2022-08-21T05:48:16;21.00;;;13.50;;
62435;SDS011;48480;50.252;18.848;2022-08-21T05:50:46;17.60;;;13.50;;
62435;SDS011;48480;50.252;18.848;2022-08-21T05:53:14;20.20;;;13.20;;
62435;SDS011;48480;50.252;18.848;2022-08-21T05:55:42;16.20;;;13.30;;
62435;SDS011;48480;50.252;18.848;2022-08-21T05:58:09;20.50;;;13.70;;
62435;SDS011;48480;50.252;18.848;2022-08-21T06:00:37;24.10;;;17.20;;
62435;SDS011;48480;50.252;18.848;2022-08-21T06:03:03;15.00;;;11.10;;
62435;SDS011;48480;50.252;18.848;2022-08-21T06:05:30;9.00;;;7.00;;
62435;SDS011;48480;50.252;18.848;2022-08-21T06:07:57;8.90;;;6.10;;
62435;SDS011;48480;50.252;18.848;2022-08-21T06:10:23;7.60;;;4.80;;
62435;SDS011;48480;50.252;18.848;2022-08-21T06:12:53;7.50;;;4.40;;
62435;SDS011;48480;50.252;18.848;2022-08-21T06:17:47;5.70;;;3.10;;
62435;SDS011;48480;50.252;18.848;2022-08-21T06:20:14;7.00;;;3.50;;
62435;SDS011;48480;50.252;18.848;2022-08-21T06:22:40;5.70;;;3.60;;
62435;SDS011;48480;50.252;18.848;2022-08-21T06:25:07;8.30;;;3.50;;
62435;SDS011;48480;50.252;18.848;2022-08-21T06:27:35;7.10;;;3.40;;
62435;SDS011;48480;50.252;18.848;2022-08-21T06:30:03;4.50;;;3.00;;
62435;SDS011;48480;50.252;18.848;2022-08-21T06:32:31;5.20;;;3.20;;
62435;SDS011;48480;50.252;18.848;2022-08-21T06:34:58;3.80;;;2.30;;
62435;SDS011;48480;50.252;18.848;2022-08-21T06:37:25;3.10;;;2.40;;
62435;SDS011;48480;50.252;18.848;2022-08-21T06:39:51;2.90;;;1.90;;
62435;SDS011;48480;50.252;18.848;2022-08-21T06:42:18;4.10;;;1.90;;
62435;SDS011;48480;50.252;18.848;2022-08-21T06:44:45;3.60;;;2.30;;
62435;SDS011;48480;50.252;18.848;2022-08-21T06:47:12;2.50;;;1.50;;
62435;SDS011;48480;50.252;18.848;2022-08-21T06:49:45;2.60;;;1.30;;
62435;SDS011;48480;50.252;18.848;2022-08-21T06:52:12;1.90;;;0.90;;
62435;SDS011;48480;50.252;18.848;2022-08-21T06:54:39;2.20;;;1.10;;
62435;SDS011;48480;50.252;18.848;2022-08-21T06:57:06;2.20;;;1.10;;
62435;SDS011;48480;50.252;18.848;2022-08-21T06:59:33;2.00;;;1.10;;
62435;SDS011;48480;50.252;18.848;2022-08-21T07:02:07;1.70;;;0.90;;
62435;SDS011;48480;50.252;18.848;2022-08-21T07:04:34;3.20;;;0.80;;
62435;SDS011;48480;50.252;18.848;2022-08-21T07:07:00;1.20;;;0.70;;
62435;SDS011;48480;50.252;18.848;2022-08-21T07:09:28;1.60;;;0.50;;
62435;SDS011;48480;50.252;18.848;2022-08-21T07:11:55;1.90;;;0.70;;
62435;SDS011;48480;50.252;18.848;2022-08-21T07:14:32;1.80;;;0.60;;
62435;SDS011;48480;50.252;18.848;2022-08-21T07:16:59;1.80;;;0.80;;
62435;SDS011;48480;50.252;18.848;2022-08-21T07:19:25;3.40;;;0.90;;
62435;SDS011;48480;50.252;18.848;2022-08-21T07:21:53;1.70;;;1.10;;
62435;SDS011;48480;50.252;18.848;2022-08-21T07:24:27;1.90;;;0.90;;
62435;SDS011;48480;50.252;18.848;2022-08-21T07:26:56;1.50;;;0.60;;
62435;SDS011;48480;50.252;18.848;2022-08-21T07:29:23;1.40;;;0.90;;
62435;SDS011;48480;50.252;18.848;2022-08-21T07:31:50;1.50;;;0.80;;
62435;SDS011;48480;50.252;18.848;2022-08-21T07:34:19;1.40;;;0.60;;
62435;SDS011;48480;50.252;18.848;2022-08-21T07:39:19;2.30;;;0.80;;
62435;SDS011;48480;50.252;18.848;2022-08-21T07:41:46;1.30;;;0.70;;
62435;SDS011;48480;50.252;18.848;2022-08-21T07:44:14;1.60;;;0.70;;
62435;SDS011;48480;50.252;18.848;2022-08-21T07:46:41;2.20;;;0.80;;
62435;SDS011;48480;50.252;18.848;2022-08-21T07:51:40;2.30;;;0.90;;
62435;SDS011;48480;50.252;18.848;2022-08-21T07:54:06;0.70;;;0.60;;
62435;SDS011;48480;50.252;18.848;2022-08-21T07:58:59;0.70;;;0.60;;
62435;SDS011;48480;50.252;18.848;2022-08-21T08:01:28;1.40;;;0.60;;
62435;SDS011;48480;50.252;18.848;2022-08-21T08:06:29;2.70;;;0.60;;
62435;SDS011;48480;50.252;18.848;2022-08-21T08:08:56;1.20;;;0.60;;
62435;SDS011;48480;50.252;18.848;2022-08-21T08:11:23;2.00;;;0.90;;
62435;SDS011;48480;50.252;18.848;2022-08-21T08:13:50;2.40;;;0.80;;
62435;SDS011;48480;50.252;18.848;2022-08-21T08:18:45;1.80;;;0.70;;
62435;SDS011;48480;50.252;18.848;2022-08-21T08:21:12;1.20;;;0.70;;
62435;SDS011;48480;50.252;18.848;2022-08-21T08:23:39;2.40;;;0.70;;
62435;SDS011;48480;50.252;18.848;2022-08-21T08:26:06;2.70;;;0.80;;
62435;SDS011;48480;50.252;18.848;2022-08-21T08:28:32;2.90;;;0.70;;
62435;SDS011;48480;50.252;18.848;2022-08-21T08:31:07;1.40;;;0.60;;
62435;SDS011;48480;50.252;18.848;2022-08-21T08:33:33;1.00;;;0.70;;
62435;SDS011;48480;50.252;18.848;2022-08-21T08:36:00;2.20;;;0.90;;
62435;SDS011;48480;50.252;18.848;2022-08-21T08:38:26;2.80;;;0.80;;
62435;SDS011;48480;50.252;18.848;2022-08-21T08:43:32;1.30;;;0.90;;
62435;SDS011;48480;50.252;18.848;2022-08-21T08:51:00;2.00;;;0.80;;
62435;SDS011;48480;50.252;18.848;2022-08-21T08:55:55;2.20;;;0.80;;
62435;SDS011;48480;50.252;18.848;2022-08-21T08:58:24;1.80;;;0.90;;
62435;SDS011;48480;50.252;18.848;2022-08-21T09:00:56;1.30;;;0.90;;
62435;SDS011;48480;50.252;18.848;2022-08-21T09:03:23;1.10;;;0.80;;
62435;SDS011;48480;50.252;18.848;2022-08-21T09:11:26;0.90;;;0.60;;
62435;SDS011;48480;50.252;18.848;2022-08-21T09:22:09;1.30;;;0.80;;
62435;SDS011;48480;50.252;18.848;2022-08-21T09:27:34;1.50;;;0.80;;
62435;SDS011;48480;50.252;18.848;2022-08-21T09:30:03;2.40;;;0.90;;
62435;SDS011;48480;50.252;18.848;2022-08-21T09:35:03;4.10;;;1.20;;
62435;SDS011;48480;50.252;18.848;2022-08-21T09:40:15;2.00;;;0.90;;
62435;SDS011;48480;50.252;18.848;2022-08-21T09:45:37;2.20;;;0.90;;
62435;SDS011;48480;50.252;18.848;2022-08-21T09:48:15;1.40;;;0.80;;
62435;SDS011;48480;50.252;18.848;2022-08-21T09:50:46;2.10;;;1.10;;
62435;SDS011;48480;50.252;18.848;2022-08-21T09:53:26;2.00;;;0.90;;
62435;SDS011;48480;50.252;18.848;2022-08-21T09:58:42;1.50;;;0.90;;
62435;SDS011;48480;50.252;18.848;2022-08-21T10:01:22;2.00;;;1.10;;
62435;SDS011;48480;50.252;18.848;2022-08-21T10:04:05;4.80;;;1.20;;
62435;SDS011;48480;50.252;18.848;2022-08-21T10:06:34;3.00;;;1.20;;
62435;SDS011;48480;50.252;18.848;2022-08-21T10:09:11;2.70;;;1.30;;
62435;SDS011;48480;50.252;18.848;2022-08-21T10:20:34;2.90;;;1.30;;
62435;SDS011;48480;50.252;18.848;2022-08-21T10:31:47;2.20;;;1.60;;
62435;SDS011;48480;50.252;18.848;2022-08-21T10:39:34;2.70;;;2.20;;
62435;SDS011;48480;50.252;18.848;2022-08-21T10:48:00;2.40;;;1.80;;
62435;SDS011;48480;50.252;18.848;2022-08-21T10:59:16;4.50;;;2.10;;
62435;SDS011;48480;50.252;18.848;2022-08-21T11:05:04;2.50;;;2.20;;
62435;SDS011;48480;50.252;18.848;2022-08-21T11:08:01;2.30;;;1.90;;
62435;SDS011;48480;50.252;18.848;2022-08-21T11:13:11;2.40;;;1.80;;
62435;SDS011;48480;50.252;18.848;2022-08-21T11:16:03;3.00;;;2.00;;
62435;SDS011;48480;50.252;18.848;2022-08-21T11:18:37;3.80;;;2.60;;
62435;SDS011;48480;50.252;18.848;2022-08-21T11:29:16;5.90;;;3.20;;
62435;SDS011;48480;50.252;18.848;2022-08-21T11:31:51;2.10;;;1.50;;
62435;SDS011;48480;50.252;18.848;2022-08-21T11:42:42;1.50;;;1.00;;
62435;SDS011;48480;50.252;18.848;2022-08-21T11:45:38;1.50;;;1.10;;
62435;SDS011;48480;50.252;18.848;2022-08-21T11:51:11;1.90;;;1.10;;
62435;SDS011;48480;50.252;18.848;2022-08-21T11:56:11;2.20;;;1.00;;
62435;SDS011;48480;50.252;18.848;2022-08-21T11:58:45;1.80;;;1.00;;
62435;SDS011;48480;50.252;18.848;2022-08-21T12:06:56;1.00;;;0.90;;
62435;SDS011;48480;50.252;18.848;2022-08-21T12:09:52;1.60;;;1.00;;
62435;SDS011;48480;50.252;18.848;2022-08-21T12:12:31;1.10;;;1.00;;
62435;SDS011;48480;50.252;18.848;2022-08-21T12:17:40;1.80;;;1.30;;
62435;SDS011;48480;50.252;18.848;2022-08-21T12:20:33;1.50;;;1.30;;
62435;SDS011;48480;50.252;18.848;2022-08-21T12:23:24;1.70;;;1.40;;
62435;SDS011;48480;50.252;18.848;2022-08-21T12:29:16;1.80;;;1.50;;
62435;SDS011;48480;50.252;18.848;2022-08-21T12:34:53;3.90;;;2.20;;
62435;SDS011;48480;50.252;18.848;2022-08-21T12:37:30;1.60;;;1.50;;
62435;SDS011;48480;50.252;18.848;2022-08-21T12:40:16;2.20;;;1.90;;
62435;SDS011;48480;50.252;18.848;2022-08-21T12:45:19;2.00;;;1.50;;
62435;SDS011;48480;50.252;18.848;2022-08-21T12:56:22;2.70;;;1.50;;
62435;SDS011;48480;50.252;18.848;2022-08-21T12:58:55;2.10;;;1.70;;
62435;SDS011;48480;50.252;18.848;2022-08-21T13:04:02;1.90;;;1.50;;
62435;SDS011;48480;50.252;18.848;2022-08-21T13:06:38;2.10;;;1.50;;
62435;SDS011;48480;50.252;18.848;2022-08-21T13:11:47;1.90;;;1.60;;
62435;SDS011;48480;50.252;18.848;2022-08-21T13:14:34;1.50;;;1.30;;
62435;SDS011;48480;50.252;18.848;2022-08-21T13:19:37;2.00;;;1.60;;
62435;SDS011;48480;50.252;18.848;2022-08-21T13:22:13;2.50;;;1.50;;
62435;SDS011;48480;50.252;18.848;2022-08-21T13:24:41;1.60;;;1.40;;
62435;SDS011;48480;50.252;18.848;2022-08-21T13:29:45;2.40;;;1.60;;
62435;SDS011;48480;50.252;18.848;2022-08-21T13:32:17;2.00;;;1.30;;
62435;SDS011;48480;50.252;18.848;2022-08-21T13:34:54;1.50;;;1.20;;
62435;SDS011;48480;50.252;18.848;2022-08-21T13:39:59;2.20;;;1.40;;
62435;SDS011;48480;50.252;18.848;2022-08-21T13:42:33;2.60;;;1.60;;
62435;SDS011;48480;50.252;18.848;2022-08-21T13:45:01;2.00;;;1.40;;
62435;SDS011;48480;50.252;18.848;2022-08-21T13:50:08;1.90;;;1.10;;
62435;SDS011;48480;50.252;18.848;2022-08-21T13:52:48;1.90;;;1.30;;
62435;SDS011;48480;50.252;18.848;2022-08-21T13:58:01;2.30;;;1.40;;
62435;SDS011;48480;50.252;18.848;2022-08-21T14:00:32;1.50;;;1.00;;
62435;SDS011;48480;50.252;18.848;2022-08-21T14:03:06;1.40;;;1.10;;
62435;SDS011;48480;50.252;18.848;2022-08-21T14:05:57;1.80;;;1.20;;
62435;SDS011;48480;50.252;18.848;2022-08-21T14:08:28;1.50;;;1.20;;
62435;SDS011;48480;50.252;18.848;2022-08-21T14:10:59;1.80;;;1.40;;
62435;SDS011;48480;50.252;18.848;2022-08-21T14:13:45;1.50;;;1.20;;
62435;SDS011;48480;50.252;18.848;2022-08-21T14:16:23;1.90;;;1.20;;
62435;SDS011;48480;50.252;18.848;2022-08-21T14:18:55;2.60;;;1.20;;
62435;SDS011;48480;50.252;18.848;2022-08-21T14:21:34;1.70;;;1.20;;
62435;SDS011;48480;50.252;18.848;2022-08-21T14:26:36;3.20;;;1.20;;
62435;SDS011;48480;50.252;18.848;2022-08-21T14:29:26;2.40;;;1.20;;
62435;SDS011;48480;50.252;18.848;2022-08-21T14:31:57;2.20;;;1.20;;
62435;SDS011;48480;50.252;18.848;2022-08-21T14:34:34;1.70;;;1.20;;
62435;SDS011;48480;50.252;18.848;2022-08-21T14:39:34;2.80;;;1.60;;
62435;SDS011;48480;50.252;18.848;2022-08-21T14:42:00;1.70;;;1.30;;
62435;SDS011;48480;50.252;18.848;2022-08-21T14:44:28;2.40;;;1.70;;
62435;SDS011;48480;50.252;18.848;2022-08-21T14:46:55;2.20;;;1.20;;
62435;SDS011;48480;50.252;18.848;2022-08-21T14:51:59;1.50;;;1.10;;
62435;SDS011;48480;50.252;18.848;2022-08-21T14:54:28;1.50;;;1.20;;
62435;SDS011;48480;50.252;18.848;2022-08-21T14:56:56;1.60;;;1.30;;
62435;SDS011;48480;50.252;18.848;2022-08-21T15:02:08;2.00;;;1.40;;
62435;SDS011;48480;50.252;18.848;2022-08-21T15:04:40;3.20;;;2.20;;
62435;SDS011;48480;50.252;18.848;2022-08-21T15:07:10;2.70;;;2.40;;
62435;SDS011;48480;50.252;18.848;2022-08-21T15:12:16;4.60;;;3.50;;
62435;SDS011;48480;50.252;18.848;2022-08-21T15:14:42;3.20;;;2.80;;
62435;SDS011;48480;50.252;18.848;2022-08-21T15:17:09;3.30;;;3.00;;
62435;SDS011;48480;50.252;18.848;2022-08-21T15:19:38;3.70;;;2.50;;
62435;SDS011;48480;50.252;18.848;2022-08-21T15:24:39;2.90;;;1.90;;
62435;SDS011;48480;50.252;18.848;2022-08-21T15:27:08;3.70;;;2.30;;
62435;SDS011;48480;50.252;18.848;2022-08-21T15:29:37;2.80;;;2.00;;
62435;SDS011;48480;50.252;18.848;2022-08-21T15:34:48;3.20;;;2.30;;
62435;SDS011;48480;50.252;18.848;2022-08-21T15:37:17;3.10;;;1.70;;
62435;SDS011;48480;50.252;18.848;2022-08-21T15:39:48;2.70;;;2.00;;
62435;SDS011;48480;50.252;18.848;2022-08-21T15:45:02;3.10;;;2.00;;
62435;SDS011;48480;50.252;18.848;2022-08-21T15:47:33;2.70;;;2.10;;
62435;SDS011;48480;50.252;18.848;2022-08-21T15:50:37;3.20;;;2.30;;
62435;SDS011;48480;50.252;18.848;2022-08-21T15:53:03;2.10;;;1.80;;
62435;SDS011;48480;50.252;18.848;2022-08-21T15:55:32;3.10;;;2.40;;
62435;SDS011;48480;50.252;18.848;2022-08-21T15:58:00;3.00;;;2.40;;
62435;SDS011;48480;50.252;18.848;2022-08-21T16:00:43;2.80;;;2.30;;
62435;SDS011;48480;50.252;18.848;2022-08-21T16:03:14;4.80;;;2.70;;
62435;SDS011;48480;50.252;18.848;2022-08-21T16:05:45;3.90;;;2.40;;
62435;SDS011;48480;50.252;18.848;2022-08-21T16:08:16;4.70;;;2.70;;
62435;SDS011;48480;50.252;18.848;2022-08-21T16:10:52;4.50;;;2.60;;
62435;SDS011;48480;50.252;18.848;2022-08-21T16:13:27;5.70;;;3.00;;
62435;SDS011;48480;50.252;18.848;2022-08-21T16:16:00;3.90;;;2.80;;
62435;SDS011;48480;50.252;18.848;2022-08-21T16:20:58;4.90;;;3.40;;
62435;SDS011;48480;50.252;18.848;2022-08-21T16:23:25;4.90;;;3.30;;
62435;SDS011;48480;50.252;18.848;2022-08-21T16:25:51;4.60;;;3.10;;
62435;SDS011;48480;50.252;18.848;2022-08-21T16:28:18;4.10;;;3.00;;
62435;SDS011;48480;50.252;18.848;2022-08-21T16:30:47;5.60;;;3.20;;
62435;SDS011;48480;50.252;18.848;2022-08-21T16:33:32;4.70;;;2.90;;
62435;SDS011;48480;50.252;18.848;2022-08-21T16:36:01;4.10;;;2.90;;
62435;SDS011;48480;50.252;18.848;2022-08-21T16:38:30;4.40;;;2.70;;
62435;SDS011;48480;50.252;18.848;2022-08-21T16:41:00;4.40;;;3.00;;
62435;SDS011;48480;50.252;18.848;2022-08-21T16:43:28;4.50;;;3.10;;
62435;SDS011;48480;50.252;18.848;2022-08-21T16:45:56;3.80;;;3.00;;
62435;SDS011;48480;50.252;18.848;2022-08-21T16:48:23;4.60;;;2.80;;
62435;SDS011;48480;50.252;18.848;2022-08-21T16:50:50;3.30;;;2.70;;
62435;SDS011;48480;50.252;18.848;2022-08-21T16:53:18;3.90;;;2.60;;
62435;SDS011;48480;50.252;18.848;2022-08-21T16:55:46;3.10;;;2.50;;
62435;SDS011;48480;50.252;18.848;2022-08-21T16:58:26;4.90;;;2.90;;
62435;SDS011;48480;50.252;18.848;2022-08-21T17:01:04;3.80;;;2.30;;
62435;SDS011;48480;50.252;18.848;2022-08-21T17:03:36;3.50;;;2.50;;
62435;SDS011;48480;50.252;18.848;2022-08-21T17:06:06;4.90;;;2.90;;
62435;SDS011;48480;50.252;18.848;2022-08-21T17:08:34;3.50;;;2.40;;
62435;SDS011;48480;50.252;18.848;2022-08-21T17:11:01;4.30;;;2.80;;
62435;SDS011;48480;50.252;18.848;2022-08-21T17:13:28;3.80;;;2.50;;
62435;SDS011;48480;50.252;18.848;2022-08-21T17:15:55;4.50;;;2.50;;
62435;SDS011;48480;50.252;18.848;2022-08-21T17:18:22;3.50;;;2.60;;
62435;SDS011;48480;50.252;18.848;2022-08-21T17:20:51;3.60;;;2.60;;
62435;SDS011;48480;50.252;18.848;2022-08-21T17:23:18;4.10;;;2.80;;
62435;SDS011;48480;50.252;18.848;2022-08-21T17:25:46;3.10;;;2.60;;
62435;SDS011;48480;50.252;18.848;2022-08-21T17:28:16;3.50;;;2.40;;
62435;SDS011;48480;50.252;18.848;2022-08-21T17:30:46;2.70;;;1.80;;
62435;SDS011;48480;50.252;18.848;2022-08-21T17:33:14;2.10;;;1.60;;
62435;SDS011;48480;50.252;18.848;2022-08-21T17:35:44;2.10;;;1.40;;
62435;SDS011;48480;50.252;18.848;2022-08-21T17:38:11;2.00;;;1.40;;
62435;SDS011;48480;50.252;18.848;2022-08-21T17:40:38;2.50;;;1.30;;
62435;SDS011;48480;50.252;18.848;2022-08-21T17:43:06;1.90;;;1.30;;
62435;SDS011;48480;50.252;18.848;2022-08-21T17:45:33;2.00;;;1.60;;
62435;SDS011;48480;50.252;18.848;2022-08-21T17:48:00;1.50;;;1.10;;
62435;SDS011;48480;50.252;18.848;2022-08-21T17:50:27;2.70;;;1.30;;